Time;durP1;ratioP1;P1;durP2;ratioP2;P2;SDS_P1;SDS_P2;PMS_P1;PMS_P2;Temp;Humidity;BMP_temperature;BMP_pressure;BME280_temperature;BME280_humidity;BME280_pressure;Samples;Min_cycle;Max_cycle;Signal;HPM_P1;HPM_P2
2022/10/19 00:01:48;;;;;;;11.95;7.93;;;23.20;46.60;;;;;;4950344;28;20440;-60
2022/10/19 00:04:16;;;;;;;10.35;7.53;;;23.10;46.00;;;;;;4966778;28;20047;-60
2022/10/19 00:06:44;;;;;;;10.98;7.78;;;23.10;46.00;;;;;;4969796;28;20408;-60
2022/10/19 00:09:15;;;;;;;9.15;7.47;;;23.20;46.10;;;;;;4969391;28;20051;-60
2022/10/19 00:11:44;;;;;;;10.25;7.70;;;23.20;46.10;;;;;;4969605;28;20444;-60
2022/10/19 00:14:15;;;;;;;9.10;7.63;;;23.20;46.10;;;;;;4968915;28;20203;-60
2022/10/19 00:16:44;;;;;;;12.18;7.75;;;23.20;46.10;;;;;;4968059;28;20404;-60
2022/10/19 00:19:14;;;;;;;9.05;6.80;;;23.10;46.00;;;;;;4968721;28;20051;-60
2022/10/19 00:21:42;;;;;;;10.02;7.32;;;23.20;46.10;;;;;;4967811;28;20043;-60
2022/10/19 00:24:09;;;;;;;9.48;7.35;;;23.20;46.10;;;;;;4965198;28;20074;-60
2022/10/19 00:26:36;;;;;;;10.48;7.40;;;23.20;46.60;;;;;;4969354;28;20291;-60
2022/10/19 00:29:04;;;;;;;9.80;7.38;;;23.10;45.90;;;;;;4968859;28;20051;-60
2022/10/19 00:31:31;;;;;;;10.57;7.28;;;23.10;45.90;;;;;;4968885;28;20271;-60
2022/10/19 00:33:59;;;;;;;13.73;8.05;;;23.10;45.90;;;;;;4972243;28;20047;-60
2022/10/19 00:36:31;;;;;;;10.60;7.65;;;23.10;45.90;;;;;;4973010;28;20046;-60
2022/10/19 00:38:59;;;;;;;8.32;7.10;;;23.10;45.90;;;;;;4970503;28;20290;-60
2022/10/19 00:41:29;;;;;;;9.20;7.32;;;23.10;45.90;;;;;;4973237;28;20055;-60
2022/10/19 00:44:36;;;;;;;9.27;7.18;;;23.10;45.90;;;;;;4972381;28;20508;-60
2022/10/19 00:47:07;;;;;;;9.65;7.07;;;23.10;45.90;;;;;;4971217;28;20073;-60
2022/10/19 00:49:38;;;;;;;9.75;7.22;;;23.10;45.90;;;;;;4972597;28;20055;-60
2022/10/19 00:52:09;;;;;;;9.10;7.75;;;23.10;46.00;;;;;;4972548;28;20480;-60
2022/10/19 00:54:38;;;;;;;12.35;7.63;;;23.10;46.00;;;;;;4968627;28;20458;-59
2022/10/19 00:57:07;;;;;;;7.30;6.43;;;23.10;46.00;;;;;;4961267;28;20047;-60
2022/10/19 00:59:35;;;;;;;9.30;6.95;;;23.10;46.00;;;;;;4952929;28;20062;-60
2022/10/19 01:02:03;;;;;;;8.27;6.55;;;23.10;46.00;;;;;;4952661;28;20055;-60
2022/10/19 01:04:33;;;;;;;9.40;7.07;;;23.10;46.00;;;;;;4950681;29;20051;-60
2022/10/19 01:07:02;;;;;;;8.00;6.40;;;23.10;46.00;;;;;;4953016;28;20047;-60
2022/10/19 01:09:29;;;;;;;9.07;7.07;;;23.10;46.00;;;;;;4952048;28;20523;-60
2022/10/19 01:12:23;;;;;;;7.47;6.63;;;23.00;46.00;;;;;;4972344;28;20047;-60
2022/10/19 01:15:17;;;;;;;9.25;7.03;;;23.10;46.10;;;;;;4972081;28;20399;-60
2022/10/19 01:18:18;;;;;;;8.45;6.80;;;23.10;46.00;;;;;;4971853;28;20070;-60
2022/10/19 01:21:16;;;;;;;7.72;6.32;;;23.00;45.90;;;;;;4971182;28;20074;-60
2022/10/19 01:24:08;;;;;;;8.07;6.80;;;23.10;45.90;;;;;;4958804;28;20051;-60
2022/10/19 01:27:11;;;;;;;8.40;7.15;;;23.10;45.90;;;;;;4951039;28;20051;-60
2022/10/19 01:30:04;;;;;;;7.72;6.57;;;23.00;45.80;;;;;;4971395;28;20055;-60
2022/10/19 01:33:01;;;;;;;7.93;6.20;;;23.10;45.80;;;;;;4970739;28;20138;-60
2022/10/19 01:35:40;;;;;;;7.90;6.25;;;23.10;45.80;;;;;;4969238;28;20046;-60
2022/10/19 01:38:26;;;;;;;9.85;7.05;;;23.10;45.80;;;;;;4971401;28;20066;-60
2022/10/19 01:41:00;;;;;;;7.05;5.93;;;23.10;45.90;;;;;;4970798;28;20046;-60
2022/10/19 01:44:03;;;;;;;8.27;5.80;;;23.00;45.80;;;;;;4970475;28;20046;-60
2022/10/19 01:46:40;;;;;;;9.43;7.15;;;23.00;45.80;;;;;;4969662;28;20396;-60
2022/10/19 01:49:22;;;;;;;7.18;6.15;;;23.00;46.10;;;;;;4971373;28;20062;-60
2022/10/19 01:51:56;;;;;;;10.10;6.70;;;23.10;45.80;;;;;;4970467;28;20046;-60
2022/10/19 01:54:31;;;;;;;6.65;5.78;;;23.00;45.80;;;;;;4970581;28;20321;-60
2022/10/19 01:57:00;;;;;;;7.65;6.22;;;23.10;45.90;;;;;;4971539;28;20043;-60
2022/10/19 01:59:29;;;;;;;7.47;5.85;;;23.10;45.90;;;;;;4966723;28;20055;-60
2022/10/19 02:01:56;;;;;;;7.43;6.22;;;23.00;45.80;;;;;;4969842;28;20054;-60
2022/10/19 02:04:24;;;;;;;6.22;5.40;;;23.00;45.90;;;;;;4969875;28;20424;-60
2022/10/19 02:06:53;;;;;;;8.00;6.43;;;23.00;45.80;;;;;;4970194;28;20395;-60
2022/10/19 02:09:21;;;;;;;7.85;6.03;;;23.00;45.80;;;;;;4970292;28;20053;-60
2022/10/19 02:11:53;;;;;;;7.18;6.05;;;23.00;45.80;;;;;;4970258;28;20061;-60
2022/10/19 02:14:30;;;;;;;7.45;5.45;;;23.00;45.80;;;;;;4970779;28;20050;-60
2022/10/19 02:17:06;;;;;;;9.02;6.93;;;23.00;45.80;;;;;;4970602;28;20053;-60
2022/10/19 02:19:33;;;;;;;7.43;6.07;;;23.00;45.70;;;;;;4970728;28;20444;-60
2022/10/19 02:22:01;;;;;;;7.32;5.88;;;23.00;45.70;;;;;;4970289;28;20050;-60
2022/10/19 02:24:28;;;;;;;8.35;6.03;;;23.00;45.70;;;;;;4970534;28;20062;-60
2022/10/19 02:27:00;;;;;;;6.97;6.15;;;23.00;45.70;;;;;;4970553;28;20408;-60
2022/10/19 02:29:27;;;;;;;7.60;6.00;;;23.00;45.70;;;;;;4970439;28;20479;-60
2022/10/19 02:31:54;;;;;;;6.72;5.78;;;23.00;45.70;;;;;;4965644;28;20051;-60
2022/10/19 02:34:22;;;;;;;6.18;5.53;;;23.00;45.70;;;;;;4968617;28;20479;-60
2022/10/19 02:36:49;;;;;;;7.03;5.65;;;23.00;45.70;;;;;;4970231;28;20046;-60
2022/10/19 02:39:16;;;;;;;6.22;5.53;;;23.00;45.70;;;;;;4968106;28;20131;-60
2022/10/19 02:42:03;;;;;;;7.38;6.25;;;23.00;45.70;;;;;;4969870;28;20047;-60
2022/10/19 02:44:53;;;;;;;6.20;5.60;;;23.00;45.70;;;;;;4970138;28;20059;-60
2022/10/19 02:47:29;;;;;;;6.15;5.38;;;23.00;45.70;;;;;;4970191;28;20054;-60
2022/10/19 02:49:57;;;;;;;7.07;5.40;;;23.00;45.60;;;;;;4970563;28;20423;-60
2022/10/19 02:52:24;;;;;;;6.90;5.82;;;23.00;45.60;;;;;;4969339;28;20059;-60
2022/10/19 02:54:51;;;;;;;5.68;5.13;;;23.00;45.70;;;;;;4969288;28;20054;-60
2022/10/19 02:57:24;;;;;;;5.85;5.20;;;22.90;45.60;;;;;;4956498;28;20047;-60
2022/10/19 02:59:51;;;;;;;7.18;5.63;;;23.00;45.70;;;;;;4949071;29;20051;-60
2022/10/19 03:02:20;;;;;;;5.55;5.00;;;23.00;45.70;;;;;;4946065;28;20495;-60
2022/10/19 03:04:47;;;;;;;7.20;5.57;;;23.00;45.70;;;;;;4966775;28;20058;-60
2022/10/19 03:07:16;;;;;;;6.25;5.07;;;23.00;45.70;;;;;;4969409;28;20047;-60
2022/10/19 03:09:44;;;;;;;6.63;5.35;;;23.00;45.80;;;;;;4968839;28;20078;-60
2022/10/19 03:12:12;;;;;;;6.15;5.20;;;23.00;45.70;;;;;;4969183;28;20054;-60
2022/10/19 03:14:39;;;;;;;6.40;5.50;;;23.00;45.70;;;;;;4969282;28;20050;-60
2022/10/19 03:17:06;;;;;;;6.45;5.63;;;23.00;45.60;;;;;;4969192;28;20051;-62
2022/10/19 03:19:34;;;;;;;5.85;5.20;;;23.00;45.60;;;;;;4969713;28;20050;-60
2022/10/19 03:22:02;;;;;;;8.30;5.78;;;23.00;45.60;;;;;;4967327;28;20419;-60
2022/10/19 03:24:30;;;;;;;6.28;5.50;;;23.00;45.60;;;;;;4969480;28;20083;-60
2022/10/19 03:26:57;;;;;;;6.40;4.93;;;23.00;45.60;;;;;;4968886;28;20050;-60
2022/10/19 03:29:24;;;;;;;6.47;5.15;;;23.00;45.60;;;;;;4969081;28;20420;-60
2022/10/19 03:31:51;;;;;;;6.75;5.38;;;23.00;45.60;;;;;;4967950;28;20042;-60
2022/10/19 03:34:18;;;;;;;6.25;5.18;;;23.00;45.60;;;;;;4964869;28;20051;-60
2022/10/19 03:36:45;;;;;;;5.97;5.28;;;22.90;45.60;;;;;;4968996;28;20055;-60
2022/10/19 03:39:14;;;;;;;7.40;5.43;;;22.90;45.50;;;;;;4968138;28;20053;-60
2022/10/19 03:41:42;;;;;;;7.85;5.05;;;23.00;45.60;;;;;;4967720;28;20051;-60
2022/10/19 03:44:10;;;;;;;6.28;5.38;;;23.00;45.60;;;;;;4969147;28;20067;-60
2022/10/19 03:46:38;;;;;;;7.35;5.90;;;23.00;45.60;;;;;;4958077;28;20062;-60
2022/10/19 03:49:05;;;;;;;8.38;5.30;;;22.90;45.60;;;;;;4950357;28;20055;-60
2022/10/19 03:51:33;;;;;;;6.95;5.53;;;23.00;45.60;;;;;;4949658;28;20055;-60
2022/10/19 03:54:04;;;;;;;6.85;5.43;;;23.00;45.60;;;;;;4947985;29;20051;-60
2022/10/19 03:56:33;;;;;;;6.15;5.18;;;22.90;45.50;;;;;;4955378;28;20051;-60
2022/10/19 03:59:03;;;;;;;4.90;4.40;;;23.00;45.60;;;;;;4967194;28;20487;-60
2022/10/19 04:01:33;;;;;;;6.82;5.07;;;22.90;45.50;;;;;;4966422;28;20058;-60
2022/10/19 04:04:02;;;;;;;;;;;23.00;45.50;;;;;;4969068;28;20488;-60
2022/10/19 04:06:34;;;;;;;5.50;4.68;;;22.90;45.40;;;;;;4956866;28;19922;-60
2022/10/19 04:09:03;;;;;;;5.63;4.53;;;22.90;45.40;;;;;;4968389;28;20069;-60
2022/10/19 04:11:32;;;;;;;7.85;4.88;;;22.90;45.50;;;;;;4968401;28;20051;-60
2022/10/19 04:14:00;;;;;;;5.57;4.72;;;22.90;45.40;;;;;;4967242;28;20089;-60
2022/10/19 04:16:28;;;;;;;5.75;4.30;;;22.90;45.40;;;;;;4967366;28;20117;-60
2022/10/19 04:18:55;;;;;;;7.35;5.18;;;22.90;45.40;;;;;;4966851;28;20050;-60
2022/10/19 04:21:32;;;;;;;6.90;5.53;;;22.90;45.40;;;;;;4968312;28;20051;-60
2022/10/19 04:24:08;;;;;;;5.53;4.35;;;22.90;45.40;;;;;;4974764;28;20039;-60
2022/10/19 04:26:45;;;;;;;5.78;4.82;;;22.90;45.40;;;;;;4976901;28;20058;-60
2022/10/19 04:29:13;;;;;;;5.95;4.78;;;22.90;45.40;;;;;;4976432;28;20057;-60
2022/10/19 04:31:40;;;;;;;5.60;4.40;;;22.90;45.40;;;;;;4979505;28;20484;-60
2022/10/19 04:34:08;;;;;;;6.35;4.28;;;22.90;45.50;;;;;;4978181;28;20047;-60
2022/10/19 04:36:35;;;;;;;6.63;5.30;;;22.90;45.50;;;;;;4975590;28;20260;-60
2022/10/19 04:39:03;;;;;;;6.10;5.10;;;22.90;45.40;;;;;;4972429;28;20045;-60
2022/10/19 04:41:31;;;;;;;5.30;4.80;;;22.90;45.40;;;;;;4964427;28;20506;-60
2022/10/19 04:44:01;;;;;;;6.95;5.40;;;22.90;45.40;;;;;;4949583;28;20058;-60
2022/10/19 04:46:29;;;;;;;5.77;5.03;;;22.90;45.30;;;;;;4966865;28;20074;-60
2022/10/19 04:48:57;;;;;;;6.45;5.05;;;22.90;45.30;;;;;;4969018;28;20178;-60
2022/10/19 04:51:24;;;;;;;8.55;5.30;;;22.90;45.30;;;;;;4968596;28;20046;-60
2022/10/19 04:53:52;;;;;;;6.85;5.45;;;22.90;45.30;;;;;;4967852;28;20065;-60
2022/10/19 04:56:26;;;;;;;8.50;6.03;;;22.90;45.30;;;;;;4967928;28;20035;-60
2022/10/19 04:58:55;;;;;;;7.03;5.65;;;22.90;45.40;;;;;;4965943;28;20435;-60
2022/10/19 05:01:24;;;;;;;7.43;5.80;;;22.80;45.30;;;;;;4961288;28;20055;-61
2022/10/19 05:03:59;;;;;;;6.82;5.10;;;22.80;45.30;;;;;;4964962;28;20101;-60
2022/10/19 05:06:27;;;;;;;8.35;5.78;;;22.90;45.40;;;;;;4968838;28;20043;-60
2022/10/19 05:08:55;;;;;;;6.32;5.40;;;22.80;45.30;;;;;;4954946;28;20043;-60
2022/10/19 05:11:22;;;;;;;8.82;6.32;;;22.80;45.30;;;;;;4958178;28;20055;-60
2022/10/19 05:13:50;;;;;;;9.55;5.95;;;22.80;45.30;;;;;;4966977;28;20066;-60
2022/10/19 05:16:19;;;;;;;8.73;5.65;;;22.80;45.30;;;;;;4960414;28;20047;-60
2022/10/19 05:18:48;;;;;;;7.55;6.28;;;22.80;45.40;;;;;;4963407;28;20411;-60
2022/10/19 05:21:16;;;;;;;9.60;6.65;;;22.80;45.40;;;;;;4966786;28;20047;-60
2022/10/19 05:23:44;;;;;;;8.25;6.47;;;22.80;45.40;;;;;;4965136;28;20042;-58
2022/10/19 05:26:16;;;;;;;6.18;5.40;;;22.80;45.50;;;;;;4962197;28;22630;-59
2022/10/19 05:28:47;;;;;;;8.02;6.47;;;22.80;45.70;;;;;;4967917;28;20054;-59
2022/10/19 05:31:19;;;;;;;7.15;5.35;;;22.80;45.80;;;;;;4964774;28;20057;-58
2022/10/19 05:33:46;;;;;;;6.80;5.78;;;22.80;46.00;;;;;;4965740;28;20133;-58
2022/10/19 05:36:25;;;;;;;8.50;6.25;;;22.80;46.10;;;;;;4962308;28;20480;-59
2022/10/19 05:38:55;;;;;;;7.78;5.93;;;22.80;46.30;;;;;;4960612;28;20043;-58
2022/10/19 05:41:24;;;;;;;6.50;5.78;;;22.90;46.50;;;;;;4957644;28;20050;-58
2022/10/19 05:43:53;;;;;;;9.57;6.55;;;22.90;46.40;;;;;;4958484;28;20043;-58
2022/10/19 05:46:20;;;;;;;7.90;5.90;;;22.90;46.20;;;;;;4959888;28;20054;-58
2022/10/19 05:48:47;;;;;;;6.15;5.50;;;22.90;46.10;;;;;;4961872;28;20042;-59
2022/10/19 05:51:17;;;;;;;9.45;6.30;;;22.90;46.00;;;;;;4960176;28;20541;-59
2022/10/19 05:53:45;;;;;;;12.27;6.82;;;22.90;46.20;;;;;;4964856;28;20074;-58
2022/10/19 05:56:15;;;;;;;9.07;6.95;;;22.90;46.50;;;;;;4966190;28;20050;-58
2022/10/19 05:58:43;;;;;;;9.85;6.43;;;22.90;46.70;;;;;;4962210;28;20054;-58
2022/10/19 06:01:11;;;;;;;9.70;6.40;;;22.90;46.80;;;;;;4960548;28;20057;-59
2022/10/19 06:03:38;;;;;;;7.72;6.10;;;23.00;46.90;;;;;;4962255;28;20051;-60
2022/10/19 06:06:07;;;;;;;8.95;6.95;;;23.00;47.10;;;;;;4965008;28;20055;-59
2022/10/19 06:08:35;;;;;;;7.93;6.43;;;23.00;47.20;;;;;;4967809;28;20542;-60
2022/10/19 06:11:09;;;;;;;10.55;7.07;;;23.00;47.40;;;;;;4964978;28;20506;-58
2022/10/19 06:13:38;;;;;;;9.02;7.22;;;23.10;47.40;;;;;;4945952;28;20053;-60
2022/10/19 06:16:06;;;;;;;13.18;7.10;;;23.10;47.40;;;;;;4962847;28;20484;-60
2022/10/19 06:18:33;;;;;;;9.23;7.00;;;23.10;47.30;;;;;;4962961;28;20051;-60
2022/10/19 06:21:03;;;;;;;10.60;7.20;;;23.10;47.10;;;;;;4964723;28;20085;-60
2022/10/19 06:23:34;;;;;;;8.73;6.78;;;23.20;46.90;;;;;;4960819;28;20053;-61
2022/10/19 06:26:05;;;;;;;9.30;6.85;;;23.20;46.70;;;;;;4952833;28;20463;-61
2022/10/19 06:28:33;;;;;;;12.30;7.72;;;23.20;46.50;;;;;;4955915;28;20556;-61
2022/10/19 06:31:00;;;;;;;9.73;6.95;;;23.20;46.50;;;;;;4956440;28;20039;-61
2022/10/19 06:33:30;;;;;;;9.15;7.47;;;23.20;46.60;;;;;;4958234;28;20051;-61
2022/10/19 06:36:08;;;;;;;12.13;7.45;;;23.20;46.80;;;;;;4957117;28;20083;-60
2022/10/19 06:38:35;;;;;;;12.63;7.35;;;23.30;47.10;;;;;;4956086;28;20066;-61
2022/10/19 06:41:03;;;;;;;10.68;7.65;;;23.30;47.30;;;;;;4955904;28;20059;-61
2022/10/19 06:43:30;;;;;;;11.20;8.48;;;23.30;47.40;;;;;;4958169;28;20133;-60
2022/10/19 06:45:58;;;;;;;12.38;7.20;;;23.40;47.40;;;;;;4959979;28;20046;-61
2022/10/19 06:48:25;;;;;;;13.57;7.70;;;23.40;47.40;;;;;;4957234;28;20503;-62
2022/10/19 06:51:01;;;;;;;13.75;8.68;;;23.40;47.40;;;;;;4959513;28;20051;-61
2022/10/19 06:53:28;;;;;;;9.68;7.18;;;23.50;47.40;;;;;;4958461;28;20062;-62
2022/10/19 06:55:58;;;;;;;12.48;8.00;;;23.50;47.50;;;;;;4962620;28;20066;-62
2022/10/19 06:58:25;;;;;;;12.38;8.25;;;23.50;47.50;;;;;;4962333;28;20727;-62
2022/10/19 07:00:57;;;;;;;14.77;8.85;;;23.60;47.60;;;;;;4959194;28;20049;-60
2022/10/19 07:03:26;;;;;;;12.77;7.43;;;23.60;47.80;;;;;;4956699;28;20507;-59
2022/10/19 07:05:58;;;;;;;11.95;8.18;;;23.70;48.00;;;;;;4958953;28;20085;-61
2022/10/19 07:08:28;;;;;;;9.13;7.03;;;23.70;48.10;;;;;;4957295;28;20058;-61
2022/10/19 07:10:58;;;;;;;10.43;7.70;;;23.70;48.00;;;;;;4959930;28;20058;-61
2022/10/19 07:13:27;;;;;;;12.45;8.30;;;23.80;48.50;;;;;;4963813;28;20049;-61
2022/10/19 07:16:01;;;;;;;15.02;7.18;;;23.80;48.00;;;;;;4958061;28;20058;-60
2022/10/19 07:18:28;;;;;;;8.50;6.68;;;23.80;47.90;;;;;;4957282;28;20047;-61
2022/10/19 07:20:57;;;;;;;11.93;7.45;;;23.90;47.90;;;;;;4951701;28;20054;-61
2022/10/19 07:23:25;;;;;;;11.60;7.18;;;24.00;47.90;;;;;;4960510;28;20042;-60
2022/10/19 07:25:54;;;;;;;13.65;7.18;;;24.00;47.90;;;;;;4958928;28;20513;-60
2022/10/19 07:28:21;;;;;;;12.70;8.00;;;24.00;47.80;;;;;;4962206;28;20047;-59
2022/10/19 07:30:48;;;;;;;9.30;6.95;;;24.10;47.90;;;;;;4958898;28;20054;-60
2022/10/19 07:33:16;;;;;;;10.70;7.63;;;24.10;47.90;;;;;;4957671;28;20532;-60
2022/10/19 07:35:48;;;;;;;11.35;6.90;;;24.10;47.90;;;;;;4957900;28;20515;-61
2022/10/19 07:38:15;;;;;;;9.57;7.57;;;24.20;48.00;;;;;;4959321;28;20059;-61
2022/10/19 07:40:42;;;;;;;14.40;8.10;;;24.20;48.10;;;;;;4957380;28;20145;-60
2022/10/19 07:43:13;;;;;;;9.38;6.85;;;24.20;48.10;;;;;;4958424;28;20093;-60
2022/10/19 07:45:40;;;;;;;7.18;6.47;;;24.20;48.00;;;;;;4955925;28;20058;-59
2022/10/19 07:48:07;;;;;;;9.40;6.75;;;24.30;48.00;;;;;;4955903;28;20049;-60
2022/10/19 07:50:34;;;;;;;11.05;7.30;;;24.30;48.00;;;;;;4962841;28;20541;-60
2022/10/19 07:53:04;;;;;;;8.60;6.85;;;24.30;47.90;;;;;;4948852;28;21408;-60
2022/10/19 07:55:33;;;;;;;10.50;6.63;;;24.30;48.00;;;;;;4952115;28;20054;-61
2022/10/19 07:58:00;;;;;;;9.90;6.55;;;24.40;48.00;;;;;;4956813;28;20057;-60
2022/10/19 08:00:28;;;;;;;9.10;6.10;;;24.40;48.00;;;;;;4963973;28;20181;-61
2022/10/19 08:02:55;;;;;;;10.68;6.50;;;24.40;48.00;;;;;;4956130;28;20495;-61
2022/10/19 08:05:42;;;;;;;8.63;6.10;;;24.40;47.80;;;;;;4959339;28;20043;-60
2022/10/19 08:08:09;;;;;;;8.75;6.32;;;24.50;47.80;;;;;;4957488;28;20051;-60
2022/10/19 08:10:36;;;;;;;13.85;7.35;;;24.50;47.70;;;;;;4968816;28;20423;-60
2022/10/19 08:13:03;;;;;;;15.52;7.25;;;24.50;47.60;;;;;;4960853;28;20062;-60
2022/10/19 08:15:31;;;;;;;14.70;6.38;;;24.50;47.60;;;;;;4963233;28;20051;-60
2022/10/19 08:17:59;;;;;;;9.85;7.07;;;24.50;47.60;;;;;;4958884;28;20070;-61
2022/10/19 08:20:27;;;;;;;7.68;6.00;;;24.50;47.50;;;;;;4959794;28;20078;-60
2022/10/19 08:22:54;;;;;;;9.88;6.13;;;24.50;47.50;;;;;;4965139;28;20086;-59
2022/10/19 08:25:25;;;;;;;8.27;6.15;;;24.50;47.50;;;;;;4955430;28;20050;-59
2022/10/19 08:27:52;;;;;;;7.43;5.45;;;24.60;47.30;;;;;;4963853;28;20050;-59
2022/10/19 08:30:19;;;;;;;8.30;5.88;;;24.60;47.30;;;;;;4960263;28;20059;-60
2022/10/19 08:32:46;;;;;;;12.30;5.82;;;24.60;47.20;;;;;;4961171;28;20053;-59
2022/10/19 08:35:13;;;;;;;8.82;5.20;;;24.60;47.10;;;;;;4962889;28;20047;-59
2022/10/19 08:37:40;;;;;;;8.20;5.05;;;24.60;47.00;;;;;;4961285;28;20050;-58
2022/10/19 08:40:25;;;;;;;7.32;5.07;;;24.60;47.00;;;;;;4964019;28;20570;-60
2022/10/19 08:43:05;;;;;;;6.40;5.10;;;24.60;46.90;;;;;;4955531;28;20165;-59
2022/10/19 08:46:03;;;;;;;9.30;4.93;;;24.60;46.80;;;;;;4954237;28;20078;-59
2022/10/19 08:48:35;;;;;;;7.47;5.00;;;24.70;46.80;;;;;;4957924;28;20058;-59
2022/10/19 08:51:05;;;;;;;6.95;4.47;;;24.70;46.80;;;;;;4960141;28;20470;-59
2022/10/19 08:53:48;;;;;;;7.13;4.60;;;24.70;46.70;;;;;;4959100;28;20069;-59
2022/10/19 08:56:29;;;;;;;11.82;5.43;;;24.70;46.60;;;;;;4969118;28;20050;-59
2022/10/19 08:59:39;;;;;;;6.28;4.95;;;24.70;46.70;;;;;;4964471;28;20047;-59
2022/10/19 09:02:23;;;;;;;7.25;4.82;;;24.70;47.10;;;;;;4960909;28;20065;-59
2022/10/19 09:04:59;;;;;;;4.75;4.22;;;24.70;46.50;;;;;;4961073;28;20043;-59
2022/10/19 09:07:33;;;;;;;6.55;4.57;;;24.70;46.50;;;;;;4959201;28;20454;-59
2022/10/19 09:10:16;;;;;;;5.25;4.20;;;24.70;46.50;;;;;;4961863;28;20070;-59
2022/10/19 09:13:00;;;;;;;5.00;4.50;;;24.70;46.60;;;;;;4958063;28;20059;-58
2022/10/19 09:15:41;;;;;;;4.97;4.13;;;24.70;46.60;;;;;;4963081;28;20069;-59
2022/10/19 09:18:22;;;;;;;5.47;3.90;;;24.80;46.80;;;;;;4955796;28;20062;-59
2022/10/19 09:21:01;;;;;;;6.25;4.32;;;24.80;47.00;;;;;;4956024;28;20050;-58
2022/10/19 09:24:03;;;;;;;7.10;4.40;;;24.80;46.90;;;;;;4959024;28;20051;-59
2022/10/19 09:26:36;;;;;;;4.88;3.50;;;24.80;46.90;;;;;;4957800;28;20058;-59
2022/10/19 09:29:25;;;;;;;4.50;3.50;;;24.80;46.90;;;;;;4958680;28;20486;-59
2022/10/19 09:31:59;;;;;;;6.40;4.18;;;24.90;47.00;;;;;;4958221;28;20507;-58
2022/10/19 09:34:42;;;;;;;4.55;3.72;;;24.90;47.00;;;;;;4963144;28;20053;-59
2022/10/19 09:37:11;;;;;;;3.45;3.15;;;24.90;47.00;;;;;;4962552;28;20051;-59
2022/10/19 09:39:49;;;;;;;4.15;3.53;;;25.00;47.00;;;;;;4963424;28;20556;-58
2022/10/19 09:42:31;;;;;;;4.93;4.00;;;25.00;46.90;;;;;;4958742;28;20142;-59
2022/10/19 09:45:12;;;;;;;7.05;3.95;;;25.00;46.70;;;;;;4958709;28;20142;-59
2022/10/19 09:47:46;;;;;;;4.30;3.05;;;25.00;46.60;;;;;;4958855;28;20134;-59
2022/10/19 09:50:21;;;;;;;5.85;3.58;;;25.10;46.50;;;;;;4961550;28;20499;-58
2022/10/19 09:52:56;;;;;;;4.15;3.65;;;25.00;46.20;;;;;;4971182;28;20507;-59
2022/10/19 09:55:29;;;;;;;4.97;3.08;;;25.00;46.10;;;;;;4968663;28;20479;-58
2022/10/19 09:58:14;;;;;;;4.28;3.38;;;25.10;46.00;;;;;;4960926;28;20051;-59
2022/10/19 10:00:44;;;;;;;4.10;3.58;;;25.10;45.90;;;;;;4967811;28;20143;-59
2022/10/19 10:03:28;;;;;;;3.75;3.15;;;25.10;45.80;;;;;;4967414;28;20101;-60
2022/10/19 10:06:01;;;;;;;4.07;3.00;;;25.10;45.70;;;;;;4962346;28;20059;-59
2022/10/19 10:08:33;;;;;;;3.13;2.80;;;25.10;45.70;;;;;;4970814;28;20053;-59
2022/10/19 10:11:21;;;;;;;3.92;3.45;;;25.10;45.70;;;;;;4967320;28;20042;-58
2022/10/19 10:13:50;;;;;;;4.63;3.10;;;25.10;45.70;;;;;;4959607;28;20062;-59
2022/10/19 10:16:22;;;;;;;4.53;3.15;;;25.10;45.70;;;;;;4967506;28;20054;-60
2022/10/19 10:19:01;;;;;;;5.57;3.08;;;25.10;45.70;;;;;;4967591;28;20054;-59
2022/10/19 10:21:33;;;;;;;2.90;2.70;;;25.20;45.70;;;;;;4960939;28;20062;-60
2022/10/19 10:24:15;;;;;;;3.60;3.00;;;25.10;45.50;;;;;;4960134;28;20047;-60
2022/10/19 10:26:46;;;;;;;3.20;2.83;;;25.20;45.40;;;;;;4964423;28;20837;-60
2022/10/19 10:29:32;;;;;;;3.22;2.38;;;25.20;45.30;;;;;;4963135;28;20058;-60
2022/10/19 10:32:16;;;;;;;3.15;2.05;;;25.20;45.20;;;;;;4966638;28;20057;-59
2022/10/19 10:34:58;;;;;;;2.85;1.90;;;25.20;45.00;;;;;;4957729;28;20065;-60
2022/10/19 10:37:40;;;;;;;5.07;2.78;;;25.30;44.90;;;;;;4960422;28;20495;-59
2022/10/19 10:40:26;;;;;;;2.42;2.17;;;25.20;44.60;;;;;;4967207;28;20436;-59
2022/10/19 10:42:56;;;;;;;2.33;2.13;;;25.20;44.50;;;;;;4969848;28;20055;-59
2022/10/19 10:45:45;;;;;;;2.17;2.00;;;25.20;44.40;;;;;;4971075;28;20051;-59
2022/10/19 10:48:34;;;;;;;2.60;2.28;;;25.20;44.20;;;;;;4962900;28;20062;-59
2022/10/19 10:51:07;;;;;;;2.50;2.25;;;25.20;44.10;;;;;;4960137;28;20089;-59
2022/10/19 10:53:45;;;;;;;2.13;1.92;;;25.20;44.10;;;;;;4960701;28;20047;-59
2022/10/19 10:56:28;;;;;;;3.25;2.05;;;25.20;44.30;;;;;;4964004;28;20066;-59
2022/10/19 10:59:23;;;;;;;2.10;1.85;;;25.30;44.30;;;;;;4962245;28;20043;-59
2022/10/19 11:02:11;;;;;;;2.08;1.88;;;25.30;44.10;;;;;;4954091;28;20142;-59
2022/10/19 11:04:43;;;;;;;2.30;2.10;;;25.30;44.00;;;;;;4957551;28;20065;-59
2022/10/19 11:07:29;;;;;;;2.53;1.55;;;25.30;43.80;;;;;;4959405;28;20047;-59
2022/10/19 11:10:01;;;;;;;3.40;1.52;;;25.30;43.50;;;;;;4958074;28;20110;-59
2022/10/19 11:12:45;;;;;;;1.80;1.70;;;25.30;43.40;;;;;;4969217;28;20071;-60
2022/10/19 11:15:25;;;;;;;1.33;1.30;;;25.30;43.50;;;;;;4954445;28;20043;-60
2022/10/19 11:18:16;;;;;;;1.50;1.40;;;25.30;43.40;;;;;;4960972;28;20047;-59
2022/10/19 11:21:21;;;;;;;3.70;1.77;;;25.30;43.50;;;;;;4960514;28;20458;-60
2022/10/19 11:24:09;;;;;;;3.28;1.75;;;25.30;43.50;;;;;;4969016;28;20086;-61
2022/10/19 11:27:15;;;;;;;1.42;1.33;;;25.30;43.60;;;;;;4969359;28;20069;-59
2022/10/19 11:30:08;;;;;;;3.05;1.80;;;25.30;43.70;;;;;;4958081;28;20057;-58
2022/10/19 11:32:57;;;;;;;1.80;1.65;;;25.30;43.50;;;;;;4962710;28;20046;-59
2022/10/19 11:35:49;;;;;;;2.30;1.67;;;25.40;43.50;;;;;;4963334;28;20050;-60
2022/10/19 11:38:39;;;;;;;1.52;1.40;;;25.40;43.30;;;;;;4960851;28;20047;-59
2022/10/19 11:41:37;;;;;;;1.40;1.30;;;25.40;43.20;;;;;;4961344;28;20055;-59
2022/10/19 11:44:34;;;;;;;1.10;1.08;;;25.50;43.20;;;;;;4967056;28;20541;-59
2022/10/19 11:47:28;;;;;;;1.42;1.33;;;25.40;43.10;;;;;;4968530;28;20043;-59
2022/10/19 11:50:26;;;;;;;1.40;1.30;;;25.50;43.10;;;;;;4960862;28;20051;-59
2022/10/19 11:53:14;;;;;;;1.33;1.23;;;25.50;42.90;;;;;;4969079;28;20093;-60
2022/10/19 11:56:10;;;;;;;1.27;1.17;;;25.50;42.80;;;;;;4968462;28;20043;-60
2022/10/19 11:59:12;;;;;;;1.15;1.15;;;25.60;43.00;;;;;;4966205;28;20055;-59
2022/10/19 12:02:13;;;;;;;1.40;1.30;;;25.60;42.80;;;;;;4962846;28;20050;-59
2022/10/19 12:04:51;;;;;;;1.25;1.15;;;25.60;42.70;;;;;;4958708;28;20051;-59
2022/10/19 12:07:58;;;;;;;1.10;1.00;;;25.60;42.70;;;;;;4965127;28;20058;-60
2022/10/19 12:10:52;;;;;;;2.30;1.73;;;25.60;42.70;;;;;;4963322;28;20074;-59
2022/10/19 12:13:26;;;;;;;1.40;1.30;;;25.60;42.70;;;;;;4966996;28;20057;-59
2022/10/19 12:15:55;;;;;;;1.25;1.15;;;25.60;42.80;;;;;;4968235;28;20065;-60
2022/10/19 12:18:46;;;;;;;1.65;1.05;;;25.60;42.70;;;;;;4968997;28;20046;-60
2022/10/19 12:21:38;;;;;;;1.17;1.17;;;25.60;41.90;;;;;;4966022;28;20065;-60
2022/10/19 12:24:18;;;;;;;1.67;0.85;;;25.60;41.50;;;;;;4967356;28;20078;-59
2022/10/19 12:26:46;;;;;;;1.13;1.10;;;25.60;41.60;;;;;;4965132;28;20062;-61
2022/10/19 12:29:23;;;;;;;1.17;0.90;;;25.60;41.70;;;;;;4965768;28;20051;-59
2022/10/19 12:31:52;;;;;;;1.50;1.10;;;25.60;41.80;;;;;;4979856;28;21190;-59
2022/10/19 12:34:35;;;;;;;2.15;1.05;;;25.60;41.80;;;;;;4967217;28;20051;-60
2022/10/19 12:37:25;;;;;;;1.20;1.00;;;25.60;41.90;;;;;;4966802;28;20062;-59
2022/10/19 12:40:07;;;;;;;1.77;0.93;;;25.60;41.90;;;;;;4968190;28;20282;-59
2022/10/19 12:42:50;;;;;;;2.47;0.80;;;25.60;42.00;;;;;;4964165;28;20051;-58
2022/10/19 12:45:42;;;;;;;0.93;0.93;;;25.60;42.00;;;;;;4965967;28;20046;-60
2022/10/19 12:48:18;;;;;;;3.05;0.90;;;25.60;42.00;;;;;;4961386;28;20065;-58
2022/10/19 12:51:02;;;;;;;5.88;1.08;;;25.70;42.10;;;;;;4962784;28;20109;-60
2022/10/19 12:53:38;;;;;;;1.08;1.08;;;25.70;42.10;;;;;;4974050;28;20047;-59
2022/10/19 12:56:11;;;;;;;0.80;0.80;;;25.70;42.20;;;;;;4960654;28;20055;-59
2022/10/19 12:58:47;;;;;;;1.33;1.10;;;25.70;42.30;;;;;;4962616;28;20053;-58
2022/10/19 13:01:20;;;;;;;8.40;1.08;;;25.80;42.50;;;;;;4961899;28;20113;-59
2022/10/19 13:03:52;;;;;;;2.70;0.80;;;25.80;42.40;;;;;;4940160;28;20043;-60
2022/10/19 13:06:32;;;;;;;1.20;1.10;;;25.80;42.30;;;;;;4937977;28;20078;-59
2022/10/19 13:09:03;;;;;;;4.35;0.93;;;25.80;42.30;;;;;;4924204;29;20047;-58
2022/10/19 13:11:31;;;;;;;1.75;0.90;;;25.80;42.20;;;;;;4943721;28;20055;-60
2022/10/19 13:14:25;;;;;;;1.25;1.15;;;25.80;42.20;;;;;;4935699;28;20095;-60
2022/10/19 13:17:01;;;;;;;1.80;0.85;;;25.90;42.30;;;;;;4920185;29;20055;-61
2022/10/19 13:19:31;;;;;;;4.43;1.15;;;25.80;42.50;;;;;;4941834;28;20053;-61
2022/10/19 13:22:25;;;;;;;7.57;0.85;;;25.90;42.90;;;;;;4943716;28;20130;-60
2022/10/19 13:25:26;;;;;;;2.88;1.10;;;25.90;43.10;;;;;;4904925;29;20450;-62